Time;durP1;ratioP1;P1;durP2;ratioP2;P2;SDS_P1;SDS_P2;PMS_P1;PMS_P2;Temp;Humidity;BMP_temperature;BMP_pressure;BME280_temperature;BME280_humidity;BME280_pressure;Samples;Min_cycle;Max_cycle;Signal;HPM_P1;HPM_P2
2022/12/19 00:00:02;;;;;;;56.80;26.20;;;;;;;;;;4994897;28;90653;-65
2022/12/19 00:02:28;;;;;;;54.22;27.13;;;;;;;;;;4992976;28;89421;-65
2022/12/19 00:04:54;;;;;;;60.22;27.85;;;;;;;;;;4994618;28;90018;-65
2022/12/19 00:07:21;;;;;;;60.20;28.05;;;;;;;;;;4994853;28;89850;-65
2022/12/19 00:09:47;;;;;;;65.60;28.35;;;;;;;;;;4985553;28;89034;-65
2022/12/19 00:12:13;;;;;;;65.72;30.10;;;;;;;;;;4979320;28;90107;-64
2022/12/19 00:14:45;;;;;;;62.80;28.48;;;;;;;;;;4997069;28;89229;-66
2022/12/19 00:17:11;;;;;;;70.50;29.77;;;;;;;;;;4995641;28;90055;-65
2022/12/19 00:19:38;;;;;;;67.07;29.23;;;;;;;;;;4991773;28;89095;-65
2022/12/19 00:22:04;;;;;;;76.85;31.77;;;;;;;;;;4988570;28;89590;-65
2022/12/19 00:24:36;;;;;;;71.80;31.90;;;;;;;;;;4994034;28;90313;-65
2022/12/19 00:27:02;;;;;;;67.85;31.05;;;;;;;;;;4979996;28;89782;-65
2022/12/19 00:29:28;;;;;;;68.45;29.92;;;;;;;;;;4991418;28;88918;-65
2022/12/19 00:31:55;;;;;;;67.22;30.15;;;;;;;;;;4980458;28;90046;-65
2022/12/19 00:34:21;;;;;;;70.45;30.30;;;;;;;;;;4996740;28;89812;-65
2022/12/19 00:36:47;;;;;;;65.47;30.15;;;;;;;;;;4987291;28;91078;-65
2022/12/19 00:39:14;;;;;;;64.88;28.67;;;;;;;;;;4983305;28;89890;-65
2022/12/19 00:41:40;;;;;;;61.30;28.25;;;;;;;;;;4993642;28;89258;-65
2022/12/19 00:44:15;;;;;;;59.97;27.48;;;;;;;;;;4991830;28;91587;-65
2022/12/19 00:46:41;;;;;;;61.90;29.05;;;;;;;;;;4988622;28;90251;-65
2022/12/19 00:49:09;;;;;;;64.55;29.15;;;;;;;;;;4993164;28;89076;-65
2022/12/19 00:51:36;;;;;;;62.45;29.27;;;;;;;;;;4994141;28;93120;-65
2022/12/19 00:54:02;;;;;;;62.17;28.27;;;;;;;;;;4985536;28;90007;-65
2022/12/19 00:56:33;;;;;;;61.70;27.23;;;;;;;;;;4992674;28;89403;-65
2022/12/19 00:59:03;;;;;;;57.50;27.58;;;;;;;;;;4983911;28;89936;-65
2022/12/19 01:01:32;;;;;;;59.75;26.75;;;;;;;;;;4990163;28;89901;-65
2022/12/19 01:03:59;;;;;;;57.03;26.95;;;;;;;;;;4992947;28;90042;-64
2022/12/19 01:06:45;;;;;;;58.13;27.13;;;;;;;;;;4991534;28;89196;-65
2022/12/19 01:09:12;;;;;;;60.97;27.00;;;;;;;;;;4982805;28;89113;-65
2022/12/19 01:14:23;;;;;;;51.25;25.42;;;;;;;;;;4990106;28;90795;-65
2022/12/19 01:16:50;;;;;;;59.17;27.52;;;;;;;;;;4995597;28;89321;-65
2022/12/19 01:19:16;;;;;;;53.97;27.08;;;;;;;;;;4995917;28;89778;-65
2022/12/19 01:21:42;;;;;;;66.47;29.05;;;;;;;;;;4991117;28;89308;-65
2022/12/19 01:24:09;;;;;;;57.88;26.77;;;;;;;;;;4992556;28;91150;-65
2022/12/19 01:26:36;;;;;;;67.43;30.92;;;;;;;;;;4995776;28;90878;-65
2022/12/19 01:29:03;;;;;;;66.97;30.70;;;;;;;;;;4992702;28;89029;-65
2022/12/19 01:31:29;;;;;;;61.72;29.95;;;;;;;;;;4988887;28;90061;-66
2022/12/19 01:33:57;;;;;;;70.65;29.90;;;;;;;;;;4991239;28;90781;-65
2022/12/19 01:36:24;;;;;;;70.45;29.50;;;;;;;;;;4997981;28;89947;-65
2022/12/19 01:38:50;;;;;;;63.85;28.60;;;;;;;;;;4997752;28;91182;-66
2022/12/19 01:41:16;;;;;;;68.32;31.02;;;;;;;;;;4994205;28;90564;-65
2022/12/19 01:43:57;;;;;;;65.40;29.75;;;;;;;;;;4995405;28;90113;-65
2022/12/19 01:46:23;;;;;;;;;;;;;;;;;;4996141;28;91831;-66
2022/12/19 01:48:50;;;;;;;60.90;28.80;;;;;;;;;;4997943;28;119494;-65
2022/12/19 01:51:20;;;;;;;75.22;31.38;;;;;;;;;;4996154;28;89073;-65
2022/12/19 01:53:47;;;;;;;;;;;;;;;;;;4994461;28;92107;-65
2022/12/19 01:56:15;;;;;;;81.75;31.15;;;;;;;;;;4995851;28;119604;-65
2022/12/19 01:58:46;;;;;;;72.60;31.10;;;;;;;;;;4990041;28;91598;-65
2022/12/19 02:01:13;;;;;;;73.90;30.50;;;;;;;;;;4994976;28;90693;-65
2022/12/19 02:03:40;;;;;;;87.88;33.17;;;;;;;;;;4998468;28;89764;-65
2022/12/19 02:06:07;;;;;;;84.75;31.75;;;;;;;;;;4991892;28;89753;-65
2022/12/19 02:08:34;;;;;;;80.10;32.25;;;;;;;;;;4995101;28;89539;-65
2022/12/19 02:11:00;;;;;;;85.90;33.53;;;;;;;;;;4994334;28;91158;-65
2022/12/19 02:13:26;;;;;;;78.03;31.40;;;;;;;;;;4995974;28;89833;-65
2022/12/19 02:16:01;;;;;;;84.05;31.52;;;;;;;;;;4995628;28;89343;-65
2022/12/19 02:18:43;;;;;;;77.13;30.90;;;;;;;;;;4995689;28;89832;-65
2022/12/19 02:21:21;;;;;;;103.90;34.42;;;;;;;;;;4990832;28;90438;-65
2022/12/19 02:23:48;;;;;;;78.32;31.92;;;;;;;;;;4992130;28;89934;-65
2022/12/19 02:26:23;;;;;;;78.40;31.52;;;;;;;;;;5001185;28;90238;-65
2022/12/19 02:28:57;;;;;;;73.28;30.63;;;;;;;;;;4995367;28;89666;-66
2022/12/19 02:31:28;;;;;;;82.20;31.67;;;;;;;;;;4986347;28;89842;-65
2022/12/19 02:34:13;;;;;;;77.80;31.13;;;;;;;;;;5010363;28;89449;-65
2022/12/19 02:36:48;;;;;;;71.95;29.40;;;;;;;;;;4995810;28;89035;-65
2022/12/19 02:39:19;;;;;;;85.93;29.17;;;;;;;;;;4983120;28;90128;-65
2022/12/19 02:41:56;;;;;;;69.00;29.00;;;;;;;;;;4992870;28;90515;-65
2022/12/19 02:44:30;;;;;;;74.22;29.67;;;;;;;;;;4998372;28;89337;-66
2022/12/19 02:46:57;;;;;;;78.95;28.77;;;;;;;;;;4990431;28;90559;-65
2022/12/19 02:49:24;;;;;;;74.05;28.83;;;;;;;;;;4978637;28;89526;-65
2022/12/19 02:51:56;;;;;;;73.30;28.20;;;;;;;;;;4994593;28;91464;-65
2022/12/19 02:54:22;;;;;;;65.65;27.73;;;;;;;;;;4994179;28;90460;-65
2022/12/19 02:56:54;;;;;;;69.50;27.27;;;;;;;;;;4992949;28;90288;-65
2022/12/19 02:59:20;;;;;;;76.97;30.75;;;;;;;;;;4993383;28;92191;-65
2022/12/19 03:01:52;;;;;;;65.15;28.17;;;;;;;;;;4994615;28;89875;-65
2022/12/19 03:04:33;;;;;;;68.88;28.30;;;;;;;;;;4991412;28;90531;-65
2022/12/19 03:07:15;;;;;;;65.90;28.42;;;;;;;;;;4981648;28;90888;-65
2022/12/19 03:10:01;;;;;;;60.15;26.92;;;;;;;;;;4994838;28;90663;-65
2022/12/19 03:12:50;;;;;;;69.55;27.98;;;;;;;;;;4979833;28;90325;-65
2022/12/19 03:15:16;;;;;;;72.60;28.85;;;;;;;;;;4992767;28;90709;-65
2022/12/19 03:17:43;;;;;;;65.75;26.38;;;;;;;;;;4992109;28;91700;-66
2022/12/19 03:20:17;;;;;;;70.07;26.98;;;;;;;;;;4990572;28;89942;-65
2022/12/19 03:22:43;;;;;;;63.25;27.23;;;;;;;;;;4987607;28;89757;-65
2022/12/19 03:25:10;;;;;;;68.22;28.15;;;;;;;;;;4989648;28;90523;-66
2022/12/19 03:27:37;;;;;;;67.00;27.98;;;;;;;;;;4993205;28;90055;-65
2022/12/19 03:30:12;;;;;;;70.25;28.75;;;;;;;;;;4992596;28;89728;-65
2022/12/19 03:32:40;;;;;;;79.78;29.40;;;;;;;;;;4991777;28;92029;-65
2022/12/19 03:35:07;;;;;;;69.28;28.27;;;;;;;;;;4994637;28;89889;-65
2022/12/19 03:37:36;;;;;;;70.78;28.20;;;;;;;;;;4992758;28;89543;-66
2022/12/19 03:40:07;;;;;;;64.30;28.15;;;;;;;;;;4987959;28;90256;-65
2022/12/19 03:45:22;;;;;;;68.43;27.88;;;;;;;;;;4983760;28;89092;-65
2022/12/19 03:47:51;;;;;;;60.92;27.05;;;;;;;;;;4989222;28;89861;-65
2022/12/19 03:50:17;;;;;;;65.68;26.52;;;;;;;;;;4991096;28;90561;-65
2022/12/19 03:53:03;;;;;;;60.63;26.77;;;;;;;;;;4991934;28;89043;-66
2022/12/19 03:55:36;;;;;;;57.80;26.55;;;;;;;;;;4997231;28;90171;-66
2022/12/19 03:58:08;;;;;;;61.10;26.45;;;;;;;;;;4992950;28;90702;-65
2022/12/19 04:00:36;;;;;;;63.42;27.02;;;;;;;;;;4992491;28;89979;-66
2022/12/19 04:03:04;;;;;;;60.50;26.15;;;;;;;;;;4994855;28;89530;-66
2022/12/19 04:05:31;;;;;;;52.72;22.95;;;;;;;;;;4993702;28;89258;-65
2022/12/19 04:08:01;;;;;;;55.72;24.05;;;;;;;;;;4993901;28;90728;-64
2022/12/19 04:10:27;;;;;;;57.92;24.27;;;;;;;;;;4995190;28;89435;-65
2022/12/19 04:13:00;;;;;;;54.47;24.05;;;;;;;;;;4993756;28;89276;-65
2022/12/19 04:15:31;;;;;;;52.50;22.73;;;;;;;;;;4995738;28;90351;-65
2022/12/19 04:17:59;;;;;;;54.42;22.90;;;;;;;;;;4981326;28;91112;-65
2022/12/19 04:20:26;;;;;;;53.88;23.90;;;;;;;;;;4985899;28;89857;-64
2022/12/19 04:22:57;;;;;;;50.47;22.95;;;;;;;;;;4991705;28;89170;-65
2022/12/19 04:25:26;;;;;;;54.75;23.15;;;;;;;;;;4991130;28;89788;-64
2022/12/19 04:27:57;;;;;;;52.35;24.02;;;;;;;;;;4991967;28;91304;-65
2022/12/19 04:30:24;;;;;;;56.85;23.98;;;;;;;;;;4994314;28;89599;-65
2022/12/19 04:32:50;;;;;;;53.50;22.48;;;;;;;;;;4991772;28;89465;-64
2022/12/19 04:35:17;;;;;;;52.55;22.98;;;;;;;;;;4992559;28;89979;-65
2022/12/19 04:37:43;;;;;;;54.22;23.75;;;;;;;;;;4990012;28;89898;-64
2022/12/19 04:40:10;;;;;;;51.00;23.42;;;;;;;;;;4997813;28;89063;-65
2022/12/19 04:42:36;;;;;;;65.18;25.55;;;;;;;;;;4989294;28;89546;-65
2022/12/19 04:45:03;;;;;;;60.60;24.50;;;;;;;;;;4995400;28;89018;-65
2022/12/19 04:47:29;;;;;;;61.15;24.85;;;;;;;;;;4981355;28;90380;-65
2022/12/19 04:49:56;;;;;;;61.78;25.13;;;;;;;;;;4997740;28;89539;-64
2022/12/19 04:52:22;;;;;;;65.43;25.50;;;;;;;;;;4994552;28;89656;-65
2022/12/19 04:54:49;;;;;;;47.80;22.65;;;;;;;;;;4993330;28;90027;-64
2022/12/19 04:57:15;;;;;;;56.90;23.85;;;;;;;;;;4988220;28;90531;-65
2022/12/19 04:59:42;;;;;;;66.35;24.58;;;;;;;;;;5001322;28;89211;-65
2022/12/19 05:02:08;;;;;;;60.15;24.40;;;;;;;;;;4995259;28;90003;-65
2022/12/19 05:04:34;;;;;;;67.85;25.00;;;;;;;;;;4989956;28;89111;-65
2022/12/19 05:07:01;;;;;;;60.28;24.58;;;;;;;;;;4994562;28;91867;-65
2022/12/19 05:09:27;;;;;;;48.70;22.08;;;;;;;;;;4989181;28;92700;-64
2022/12/19 05:11:53;;;;;;;49.50;23.33;;;;;;;;;;4985182;28;89720;-64
2022/12/19 05:14:20;;;;;;;51.05;22.50;;;;;;;;;;4995535;28;90904;-65
2022/12/19 05:16:46;;;;;;;51.90;21.48;;;;;;;;;;4992976;28;89671;-65
2022/12/19 05:19:12;;;;;;;52.53;21.40;;;;;;;;;;4992799;28;90658;-65
2022/12/19 05:21:39;;;;;;;53.72;22.25;;;;;;;;;;4995424;28;89820;-65
2022/12/19 05:24:06;;;;;;;57.28;22.85;;;;;;;;;;4997399;28;89178;-64
2022/12/19 05:26:32;;;;;;;45.22;19.90;;;;;;;;;;4996890;28;90256;-64
2022/12/19 05:28:59;;;;;;;44.63;21.20;;;;;;;;;;4996540;28;89601;-65
2022/12/19 05:31:25;;;;;;;49.58;20.70;;;;;;;;;;4996653;28;89151;-65
2022/12/19 05:33:51;;;;;;;40.92;20.23;;;;;;;;;;4993002;28;89931;-64
2022/12/19 05:36:18;;;;;;;52.00;20.15;;;;;;;;;;4995488;28;90601;-65
2022/12/19 05:38:45;;;;;;;56.88;21.38;;;;;;;;;;4995717;28;90542;-65
2022/12/19 05:41:15;;;;;;;45.42;20.60;;;;;;;;;;4995098;28;90100;-65
2022/12/19 05:43:43;;;;;;;42.85;19.67;;;;;;;;;;4996417;28;89709;-65
2022/12/19 05:46:09;;;;;;;49.13;20.30;;;;;;;;;;4988165;28;89913;-65
2022/12/19 05:48:36;;;;;;;54.35;23.05;;;;;;;;;;4989833;28;90028;-65
2022/12/19 05:51:02;;;;;;;51.22;22.05;;;;;;;;;;4989285;28;94096;-65
2022/12/19 05:53:29;;;;;;;53.97;22.50;;;;;;;;;;4994347;28;91968;-65
2022/12/19 05:56:02;;;;;;;43.65;19.42;;;;;;;;;;4988905;28;93064;-64
2022/12/19 05:58:28;;;;;;;47.25;19.92;;;;;;;;;;4989858;28;94385;-65
2022/12/19 06:00:59;;;;;;;39.90;18.52;;;;;;;;;;4986419;28;95606;-65
2022/12/19 06:03:26;;;;;;;39.10;18.77;;;;;;;;;;4984273;28;94473;-65
2022/12/19 06:05:52;;;;;;;40.35;18.50;;;;;;;;;;4988472;28;93760;-65
2022/12/19 06:08:18;;;;;;;34.72;17.67;;;;;;;;;;4993426;28;93296;-65
2022/12/19 06:10:45;;;;;;;34.75;17.50;;;;;;;;;;4991108;28;94478;-65
2022/12/19 06:13:11;;;;;;;42.40;19.15;;;;;;;;;;4993211;28;93037;-65
2022/12/19 06:15:37;;;;;;;41.45;19.55;;;;;;;;;;4989254;28;94316;-65
2022/12/19 06:18:04;;;;;;;36.45;18.48;;;;;;;;;;4991427;28;93021;-64
2022/12/19 06:20:30;;;;;;;38.38;18.67;;;;;;;;;;4989660;28;92439;-65
2022/12/19 06:22:57;;;;;;;44.38;19.15;;;;;;;;;;4990844;28;93375;-65
2022/12/19 06:25:24;;;;;;;42.63;18.00;;;;;;;;;;4989020;28;95816;-64
2022/12/19 06:27:50;;;;;;;35.95;17.35;;;;;;;;;;4983624;28;92486;-65
2022/12/19 06:30:16;;;;;;;31.70;16.42;;;;;;;;;;4981315;28;93521;-65
2022/12/19 06:32:43;;;;;;;30.27;16.17;;;;;;;;;;4993154;28;92430;-65
2022/12/19 06:35:09;;;;;;;32.40;17.38;;;;;;;;;;4993010;28;93051;-65
2022/12/19 06:37:35;;;;;;;36.30;16.95;;;;;;;;;;4992778;28;93770;-65
2022/12/19 06:40:05;;;;;;;35.72;18.13;;;;;;;;;;4993116;28;92464;-65
2022/12/19 06:42:31;;;;;;;40.63;17.45;;;;;;;;;;4988425;28;94241;-65
2022/12/19 06:44:57;;;;;;;41.50;19.75;;;;;;;;;;4975408;28;93413;-65
2022/12/19 06:47:24;;;;;;;34.90;18.13;;;;;;;;;;4986733;28;92649;-65
2022/12/19 06:49:50;;;;;;;38.83;19.20;;;;;;;;;;4993428;28;95002;-64
2022/12/19 06:52:17;;;;;;;36.03;18.33;;;;;;;;;;4993966;28;92451;-65
2022/12/19 06:54:43;;;;;;;39.00;18.48;;;;;;;;;;4993990;28;93527;-64
2022/12/19 06:57:10;;;;;;;32.95;16.98;;;;;;;;;;4991650;28;93542;-65
2022/12/19 06:59:36;;;;;;;32.15;16.92;;;;;;;;;;4993151;28;92497;-65
2022/12/19 07:02:10;;;;;;;34.50;17.83;;;;;;;;;;4977535;28;93334;-65
2022/12/19 07:04:39;;;;;;;30.30;15.98;;;;;;;;;;4988914;28;95216;-65
2022/12/19 07:07:06;;;;;;;31.45;16.90;;;;;;;;;;4979736;28;93281;-65
2022/12/19 07:09:33;;;;;;;36.00;17.60;;;;;;;;;;4986989;28;92528;-64
2022/12/19 07:12:00;;;;;;;33.47;17.27;;;;;;;;;;4988724;28;92685;-65
2022/12/19 07:14:26;;;;;;;33.97;16.98;;;;;;;;;;4990018;28;95045;-66
2022/12/19 07:16:53;;;;;;;31.58;17.27;;;;;;;;;;4989254;28;93851;-65
2022/12/19 07:19:21;;;;;;;33.08;16.88;;;;;;;;;;4990532;28;92486;-65
2022/12/19 07:21:47;;;;;;;33.08;17.30;;;;;;;;;;4988939;28;94391;-66
2022/12/19 07:24:14;;;;;;;34.30;18.15;;;;;;;;;;4974354;28;96144;-65
2022/12/19 07:26:41;;;;;;;32.78;16.70;;;;;;;;;;4985517;28;93617;-65
2022/12/19 07:29:08;;;;;;;35.72;16.70;;;;;;;;;;4987688;28;93399;-65
2022/12/19 07:31:35;;;;;;;33.70;17.15;;;;;;;;;;4994077;28;95500;-65
2022/12/19 07:34:02;;;;;;;31.48;17.20;;;;;;;;;;4990843;28;92483;-65
2022/12/19 07:36:28;;;;;;;28.00;16.77;;;;;;;;;;4988680;28;93898;-65
2022/12/19 07:38:54;;;;;;;29.95;16.27;;;;;;;;;;4990364;28;94844;-65
2022/12/19 07:41:21;;;;;;;25.88;15.60;;;;;;;;;;4989469;28;95577;-65
2022/12/19 07:43:47;;;;;;;34.63;16.35;;;;;;;;;;4982579;28;93515;-64
2022/12/19 07:46:13;;;;;;;29.77;15.73;;;;;;;;;;4986301;28;92775;-64
2022/12/19 07:48:40;;;;;;;29.23;16.40;;;;;;;;;;4990475;28;92431;-63
2022/12/19 07:51:06;;;;;;;29.08;14.13;;;;;;;;;;4988623;28;93451;-64
2022/12/19 07:53:32;;;;;;;23.40;14.02;;;;;;;;;;4993452;28;93306;-65
2022/12/19 07:55:59;;;;;;;29.23;14.40;;;;;;;;;;4989849;28;92745;-65
2022/12/19 07:58:25;;;;;;;29.75;14.77;;;;;;;;;;4990563;28;92754;-64
2022/12/19 08:00:55;;;;;;;24.70;14.65;;;;;;;;;;4991123;28;94582;-66
2022/12/19 08:03:22;;;;;;;33.50;14.52;;;;;;;;;;4986368;28;98122;-64
2022/12/19 08:05:49;;;;;;;29.73;14.73;;;;;;;;;;4984462;28;92937;-64
2022/12/19 08:08:16;;;;;;;23.45;12.98;;;;;;;;;;4978641;28;93156;-64
2022/12/19 08:10:42;;;;;;;28.90;14.48;;;;;;;;;;4986710;28;93409;-64
2022/12/19 08:13:09;;;;;;;32.63;13.48;;;;;;;;;;4984086;28;92406;-64
2022/12/19 08:15:35;;;;;;;32.17;13.32;;;;;;;;;;4990110;28;94189;-64
2022/12/19 08:18:02;;;;;;;26.35;12.77;;;;;;;;;;4988345;28;92573;-65
2022/12/19 08:20:28;;;;;;;27.75;13.65;;;;;;;;;;4983314;28;93735;-65
2022/12/19 08:22:55;;;;;;;26.25;13.93;;;;;;;;;;5005433;28;94471;-63
2022/12/19 08:25:21;;;;;;;22.70;13.27;;;;;;;;;;4987584;28;93720;-64
2022/12/19 08:27:47;;;;;;;27.33;13.95;;;;;;;;;;4979580;28;94863;-65
2022/12/19 08:30:14;;;;;;;22.65;13.27;;;;;;;;;;4982179;28;93975;-65
2022/12/19 08:32:40;;;;;;;25.90;13.77;;;;;;;;;;4983862;28;92561;-66
2022/12/19 08:35:06;;;;;;;22.70;13.32;;;;;;;;;;4987325;28;93019;-64
2022/12/19 08:37:33;;;;;;;23.15;12.68;;;;;;;;;;4994939;28;93443;-63
2022/12/19 08:40:00;;;;;;;18.73;11.90;;;;;;;;;;4990259;28;95899;-64
2022/12/19 08:42:26;;;;;;;23.48;12.70;;;;;;;;;;4989115;28;94729;-64
2022/12/19 08:44:52;;;;;;;23.23;13.15;;;;;;;;;;4992458;28;92016;-64
2022/12/19 08:47:18;;;;;;;23.25;12.23;;;;;;;;;;4987090;28;94209;-64
2022/12/19 08:49:45;;;;;;;24.15;12.27;;;;;;;;;;4991274;28;93437;-64
2022/12/19 08:52:11;;;;;;;19.00;11.88;;;;;;;;;;4988280;28;96957;-64
2022/12/19 08:54:37;;;;;;;19.95;12.48;;;;;;;;;;4987228;28;95664;-63
2022/12/19 08:57:04;;;;;;;21.90;12.13;;;;;;;;;;4976021;28;93845;-64
2022/12/19 08:59:30;;;;;;;22.00;12.23;;;;;;;;;;4990990;28;92483;-64
2022/12/19 09:01:58;;;;;;;21.70;12.25;;;;;;;;;;4992776;28;93438;-64
2022/12/19 09:04:25;;;;;;;22.70;11.63;;;;;;;;;;4989000;28;92468;-64
2022/12/19 09:07:12;;;;;;;15.70;10.65;;;;;;;;;;4988221;28;92977;-64
2022/12/19 09:09:41;;;;;;;17.58;10.07;;;;;;;;;;4991303;28;92759;-63
2022/12/19 09:12:07;;;;;;;15.15;9.65;;;;;;;;;;4989074;28;92607;-64
2022/12/19 09:14:34;;;;;;;18.65;10.57;;;;;;;;;;4992836;28;94166;-65
2022/12/19 09:17:00;;;;;;;19.27;11.15;;;;;;;;;;4988729;28;96790;-65
2022/12/19 09:19:30;;;;;;;20.73;10.80;;;;;;;;;;4988414;28;92538;-64
2022/12/19 09:21:56;;;;;;;21.15;10.48;;;;;;;;;;4990777;28;93804;-64
2022/12/19 09:24:22;;;;;;;17.05;10.13;;;;;;;;;;4988324;28;92686;-64
2022/12/19 09:26:49;;;;;;;17.52;9.75;;;;;;;;;;4984351;28;93689;-64
2022/12/19 09:29:15;;;;;;;19.73;10.80;;;;;;;;;;4989400;28;93977;-64
2022/12/19 09:31:47;;;;;;;22.88;10.48;;;;;;;;;;4990022;28;93036;-64
2022/12/19 09:34:19;;;;;;;17.20;9.30;;;;;;;;;;4991486;28;93173;-64
2022/12/19 09:36:47;;;;;;;18.98;9.32;;;;;;;;;;4986582;28;93651;-64
2022/12/19 09:39:13;;;;;;;21.45;9.02;;;;;;;;;;4984742;28;92456;-64
2022/12/19 09:41:39;;;;;;;20.05;8.60;;;;;;;;;;4986766;28;95158;-65
2022/12/19 09:44:24;;;;;;;14.40;8.45;;;;;;;;;;4993338;28;92684;-65
2022/12/19 09:46:53;;;;;;;15.55;8.43;;;;;;;;;;4994544;28;93917;-65
2022/12/19 09:49:41;;;;;;;14.75;8.75;;;;;;;;;;4994625;28;93343;-64
2022/12/19 09:52:10;;;;;;;14.75;8.93;;;;;;;;;;4996397;28;92460;-64
2022/12/19 09:54:40;;;;;;;15.75;8.45;;;;;;;;;;4996347;28;93231;-65
2022/12/19 09:57:15;;;;;;;15.43;8.93;;;;;;;;;;4995961;28;94145;-65
2022/12/19 09:59:44;;;;;;;17.15;9.10;;;;;;;;;;4996885;28;91709;-64
2022/12/19 10:02:21;;;;;;;15.80;8.45;;;;;;;;;;4995306;28;92483;-65
2022/12/19 10:04:50;;;;;;;14.88;9.80;;;;;;;;;;4999257;28;94862;-64
2022/12/19 10:07:24;;;;;;;14.20;8.93;;;;;;;;;;4994423;28;94788;-65
2022/12/19 10:10:21;;;;;;;14.55;8.90;;;;;;;;;;4996147;28;93586;-64
2022/12/19 10:13:16;;;;;;;13.57;8.57;;;;;;;;;;4996279;28;92432;-65
2022/12/19 10:15:44;;;;;;;19.50;9.10;;;;;;;;;;4996061;28;93693;-65
2022/12/19 10:18:32;;;;;;;15.15;9.73;;;;;;;;;;4995767;28;93521;-64
2022/12/19 10:21:07;;;;;;;14.00;8.38;;;;;;;;;;4994857;28;92505;-65
2022/12/19 10:23:43;;;;;;;18.80;8.60;;;;;;;;;;4996178;28;93279;-64
2022/12/19 10:26:13;;;;;;;16.33;8.27;;;;;;;;;;4996324;28;93669;-64
2022/12/19 10:28:54;;;;;;;15.85;9.70;;;;;;;;;;4998791;28;92400;-65
2022/12/19 10:31:25;;;;;;;16.20;8.57;;;;;;;;;;4995789;28;93617;-64
2022/12/19 10:33:52;;;;;;;;;;;;;;;;;;4994923;28;95222;-64
2022/12/19 10:36:18;;;;;;;17.08;7.45;;;;;;;;;;4996704;28;124410;-64
2022/12/19 10:39:06;;;;;;;13.90;7.70;;;;;;;;;;4995874;28;96349;-64
2022/12/19 10:41:32;;;;;;;13.43;7.85;;;;;;;;;;4995343;28;92448;-64
2022/12/19 10:44:09;;;;;;;14.20;7.15;;;;;;;;;;4994729;28;96561;-64
2022/12/19 10:46:44;;;;;;;12.05;7.28;;;;;;;;;;4995431;28;93354;-65
2022/12/19 10:49:15;;;;;;;11.25;7.03;;;;;;;;;;4994241;28;92527;-64
2022/12/19 10:52:02;;;;;;;11.93;7.57;;;;;;;;;;4997853;28;93700;-65
2022/12/19 10:54:42;;;;;;;15.27;7.15;;;;;;;;;;4994381;28;92498;-64
2022/12/19 10:57:20;;;;;;;10.57;6.95;;;;;;;;;;4995586;28;93174;-65
2022/12/19 10:59:55;;;;;;;12.82;7.30;;;;;;;;;;4993668;28;95817;-64
2022/12/19 11:02:28;;;;;;;15.93;7.43;;;;;;;;;;4994251;28;92472;-65
2022/12/19 11:04:54;;;;;;;11.63;6.93;;;;;;;;;;4995182;28;93678;-65
2022/12/19 11:07:21;;;;;;;10.02;6.78;;;;;;;;;;4995336;28;93469;-65
2022/12/19 11:09:47;;;;;;;11.70;7.20;;;;;;;;;;4994208;28;92444;-65
2022/12/19 11:12:33;;;;;;;11.25;6.88;;;;;;;;;;4998395;28;93400;-64
2022/12/19 11:15:20;;;;;;;12.57;7.03;;;;;;;;;;4995517;28;92932;-64
2022/12/19 11:18:07;;;;;;;11.68;6.93;;;;;;;;;;4995809;28;92762;-65
2022/12/19 11:21:04;;;;;;;15.57;6.47;;;;;;;;;;4995166;28;93079;-64
2022/12/19 11:23:59;;;;;;;11.18;7.18;;;;;;;;;;4995010;28;92427;-64
2022/12/19 11:26:49;;;;;;;13.13;7.00;;;;;;;;;;4993856;28;95192;-62
2022/12/19 11:29:46;;;;;;;11.63;6.90;;;;;;;;;;4983073;28;93476;-62
2022/12/19 11:32:34;;;;;;;9.85;6.35;;;;;;;;;;4988170;28;93061;-65
2022/12/19 11:35:14;;;;;;;10.95;6.75;;;;;;;;;;4991964;28;95653;-63
2022/12/19 11:37:47;;;;;;;11.18;7.03;;;;;;;;;;4994900;28;94065;-63
2022/12/19 11:40:23;;;;;;;7.32;6.50;;;;;;;;;;4990817;28;93965;-61
2022/12/19 11:42:58;;;;;;;10.77;6.68;;;;;;;;;;4990844;28;94113;-65
2022/12/19 11:45:48;;;;;;;8.68;6.30;;;;;;;;;;4994439;28;91876;-61
2022/12/19 11:48:33;;;;;;;8.07;6.10;;;;;;;;;;4993040;28;92721;-61
2022/12/19 11:51:19;;;;;;;9.00;6.43;;;;;;;;;;4992270;28;93241;-62
2022/12/19 11:53:46;;;;;;;13.30;6.75;;;;;;;;;;4986717;28;96518;-62
2022/12/19 11:56:13;;;;;;;11.13;6.72;;;;;;;;;;4989866;28;95533;-61
2022/12/19 11:58:45;;;;;;;10.80;6.55;;;;;;;;;;4986802;28;93682;-60
2022/12/19 12:01:17;;;;;;;14.43;6.35;;;;;;;;;;4986406;28;92374;-63
2022/12/19 12:03:52;;;;;;;12.48;6.50;;;;;;;;;;4987497;28;93984;-63
2022/12/19 12:06:31;;;;;;;13.52;6.63;;;;;;;;;;4990286;28;94302;-60
2022/12/19 12:09:04;;;;;;;8.50;6.38;;;;;;;;;;4993018;28;94228;-60
2022/12/19 12:12:01;;;;;;;7.00;6.03;;;;;;;;;;4993754;28;92926;-61
2022/12/19 12:14:54;;;;;;;10.98;6.45;;;;;;;;;;4993674;28;92437;-61
2022/12/19 12:17:47;;;;;;;7.50;5.70;;;;;;;;;;4974921;28;94235;-63
2022/12/19 12:20:52;;;;;;;12.52;6.75;;;;;;;;;;4974084;28;95683;-64
2022/12/19 12:23:49;;;;;;;10.80;5.63;;;;;;;;;;4976684;28;94411;-64
2022/12/19 12:26:48;;;;;;;9.75;5.93;;;;;;;;;;4977939;28;92859;-63
2022/12/19 12:29:54;;;;;;;12.35;6.57;;;;;;;;;;4991242;28;92564;-62
2022/12/19 12:32:53;;;;;;;8.88;5.95;;;;;;;;;;4991196;28;95260;-63
2022/12/19 12:35:44;;;;;;;8.63;5.43;;;;;;;;;;4993812;28;93070;-63
2022/12/19 12:38:49;;;;;;;10.98;6.10;;;;;;;;;;4993225;28;92532;-63
2022/12/19 12:42:03;;;;;;;10.88;5.45;;;;;;;;;;4992781;28;93153;-62
2022/12/19 12:44:34;;;;;;;9.77;5.00;;;;;;;;;;4969700;28;93394;-63
2022/12/19 12:47:17;;;;;;;13.68;5.32;;;;;;;;;;4970850;28;92531;-62
2022/12/19 12:49:49;;;;;;;6.32;5.22;;;;;;;;;;4966202;28;95031;-62
2022/12/19 12:52:28;;;;;;;7.15;5.13;;;;;;;;;;4974700;28;93413;-63
2022/12/19 12:54:56;;;;;;;7.93;5.53;;;;;;;;;;4970261;28;94244;-62
2022/12/19 12:57:25;;;;;;;8.35;5.40;;;;;;;;;;4954196;28;96364;-62
2022/12/19 13:00:12;;;;;;;8.93;5.40;;;;;;;;;;4969498;28;92558;-62
2022/12/19 13:02:38;;;;;;;13.10;5.30;;;;;;;;;;4969649;28;93426;-62
2022/12/19 13:05:23;;;;;;;11.80;5.57;;;;;;;;;;4974191;28;93425;-62
2022/12/19 13:07:51;;;;;;;7.75;5.45;;;;;;;;;;4970686;28;92268;-62
2022/12/19 13:10:22;;;;;;;11.60;6.00;;;;;;;;;;4973522;28;92633;-64
2022/12/19 13:13:12;;;;;;;12.75;6.95;;;;;;;;;;4973527;28;93376;-64
2022/12/19 13:15:44;;;;;;;13.32;7.03;;;;;;;;;;4975235;28;95277;-63
2022/12/19 13:18:29;;;;;;;8.48;5.68;;;;;;;;;;4974519;28;93453;-63
2022/12/19 13:20:56;;;;;;;8.88;6.00;;;;;;;;;;4976435;28;92430;-64
2022/12/19 13:23:33;;;;;;;13.18;6.32;;;;;;;;;;4986206;28;93199;-63
2022/12/19 13:25:59;;;;;;;9.43;6.13;;;;;;;;;;4991964;28;93431;-63
2022/12/19 13:28:26;;;;;;;8.32;5.10;;;;;;;;;;4994623;28;92422;-63
2022/12/19 13:31:04;;;;;;;10.23;5.22;;;;;;;;;;4995857;28;92931;-63
2022/12/19 13:33:50;;;;;;;8.95;4.20;;;;;;;;;;4997371;28;93584;-63
